Detalii statie SOPEMA [00001CFB]

Toti senzorii

Date Temperatura solului [C]Precipitatii [mm]Voltaj baterie [mV]Leaf Wetness [Min]HC Air temperature [C]HC Relative humidity [%]Punctul de roua [C]
medieminmaxsumaultimatimpmedieminmaxmediemediemin
2018-08-12 11:00:00 0 7254 30.24 28.54 31.78 15.84 5.9 0
2018-08-12 12:00:00 0 7254 31.01 29.9 31.72 0 0 0
2018-08-12 13:00:00 0 7254 31.23 30.28 32.28 4.77 0
2018-08-12 14:00:00 0 7236 30.69 29.9 31.42 26.87 0
2018-08-12 15:00:00 0 7166 32.01 30.79 33.16 36.42 14.9 13.6
2018-08-12 16:00:00 0 7080 32.21 30.48 33.27 34.26 14.1 12.3
2018-08-12 17:00:00 0 7020 32.16 30.62 33.12 32.52 13.3 10.5
2018-08-12 18:00:00 0 6952 29.79 29.19 31.34 35.81 12.7 11.8
2018-08-12 19:00:00 0 6884 27.12 25.49 29.19 50.84 15.7 12.5
2018-08-12 20:00:00 0 6874 24.24 23.04 25.24 59.63 15.7 15.5
2018-08-12 21:00:00 0 6884 21.87 21.55 22.83 67.13 15.3 14.6
2018-08-12 22:00:00 0 6884 20.44 19.05 21.33 69.29 14.5 14.2
2018-08-12 23:00:00 0 6874 17.81 16.79 18.65 93.51 16.5 14.7
2018-08-13 00:00:00 0 6884 16.79 16.4 17.24 100 16.7 16.4
2018-08-13 01:00:00 0 6864 15.54 14.92 16.22 21.82 2.9 0
2018-08-13 02:00:00 0 6854 15.16 14.55 15.69 22.61 2.9 0
2018-08-13 03:00:00 0 6854 15.38 14.44 16.06 47.23 7.2 0
2018-08-13 04:00:00 0 6816 15.32 13.98 16.15 33.33 5.1 0
2018-08-13 05:00:00 0 6786 13.97 13.59 14.47 22.68 2.5 0
2018-08-13 06:00:00 0 6816 14.42 13.55 15.98 0 0 0
2018-08-13 07:00:00 0 6826 18.14 16.41 20.07 0 0 0
2018-08-13 08:00:00 0 6844 22.53 20.35 24.36 71.27 0
2018-08-13 09:00:00 0 6952 25.9 24.74 27.86 83.31 21.6 0
2018-08-13 10:00:00 0 7158 29.3 28.13 30.48 9.27 0
2018-08-13 11:00:00 0 7236 30.48 29.08 31.25 38.54 14.5 0
2018-08-13 12:00:00 0 7236 31.25 30.12 32.61 44.37 17.4 15.9
2018-08-13 13:00:00 0 7254 32.02 30.96 33.2 36.93 15.2 12.9
2018-08-13 14:00:00 0 7236 32.98 31.24 34.26 34.28 14.7 12.5
2018-08-13 15:00:00 0 7138 32.74 32.15 33.22 35.33 15 13.8
2018-08-13 16:00:00 0 7070 32.04 31.46 32.96 33.86 13.8 12.4
2018-08-13 17:00:00 0 6982 32.14 31.68 33.34 32.25 13.2 11.5
2018-08-13 18:00:00 0 6914 30.61 28.94 31.88 0 0 0
2018-08-13 19:00:00 0 6864 27.55 26.43 28.78 15.03 0
2018-08-13 20:00:00 0 6884 24.81 23.81 26.01 14.59 0
2018-08-13 21:00:00 0 6874 22.42 21.44 23.6 9.56 2.1 0
2018-08-13 22:00:00 0 6844 20.83 20.28 21.41 66.93 14.2 11.7
2018-08-13 23:00:00 0 6854 19.14 17.12 20.46 83.54 0
2018-08-14 00:00:00 0 6874 15.89 15.31 16.68 99.71 15.8 15.2
2018-08-14 01:00:00 0 6874 16.7 15.73 17.34 87.65 14.4 13.8
2018-08-14 02:00:00 0 6864 16.57 15.89 16.95 84.32 13.7 13.6
2018-08-14 03:00:00 0 6854 14.3 13.31 15.6 96.81 13.7 13.1
2018-08-14 04:00:00 0 6834 14.29 13.14 15.58 99.89 14.2 13.1
2018-08-14 05:00:00 0 6796 13.6 12.57 14.89 38.16 4.1 0
2018-08-14 06:00:00 0 6796 14.58 14 15.29 97.6 14.1 9.6
2018-08-14 07:00:00 0 6826 17.24 15.63 18.56 91.66 0
2018-08-14 08:00:00 0 6854 21.49 19.04 23.42 65.52 0
2018-08-14 09:00:00 0 7020 25.78 24.17 27.29 0 0 0
2018-08-14 10:00:00 0 7176 28.05 26.55 29.72 14.89 0